sensor_id;sensor_type;location;lat;lon;timestamp;temperature;humidity
3860;DHT22;1945;52.036;8.614;2023-01-25T00:02:00;1.10;99.90
3860;DHT22;1945;52.036;8.614;2023-01-25T00:04:27;1.00;99.90
3860;DHT22;1945;52.036;8.614;2023-01-25T00:06:55;0.60;99.90
3860;DHT22;1945;52.036;8.614;2023-01-25T00:09:22;1.40;99.90
3860;DHT22;1945;52.036;8.614;2023-01-25T00:11:51;1.30;99.90
3860;DHT22;1945;52.036;8.614;2023-01-25T00:14:20;1.20;99.90
3860;DHT22;1945;52.036;8.614;2023-01-25T00:16:47;1.50;99.90
3860;DHT22;1945;52.036;8.614;2023-01-25T00:19:14;1.50;99.90
3860;DHT22;1945;52.036;8.614;2023-01-25T00:21:41;1.40;99.90
3860;DHT22;1945;52.036;8.614;2023-01-25T00:24:07;1.50;99.90
3860;DHT22;1945;52.036;8.614;2023-01-25T00:26:36;1.50;99.90
3860;DHT22;1945;52.036;8.614;2023-01-25T00:29:04;1.00;99.90
3860;DHT22;1945;52.036;8.614;2023-01-25T00:31:37;1.20;99.90
3860;DHT22;1945;52.036;8.614;2023-01-25T00:34:41;1.60;99.90
3860;DHT22;1945;52.036;8.614;2023-01-25T00:37:22;1.00;99.90
3860;DHT22;1945;52.036;8.614;2023-01-25T00:39:49;1.50;99.90
3860;DHT22;1945;52.036;8.614;2023-01-25T00:42:17;1.60;99.90
3860;DHT22;1945;52.036;8.614;2023-01-25T00:44:46;1.50;99.90
3860;DHT22;1945;52.036;8.614;2023-01-25T00:47:14;1.00;99.90
3860;DHT22;1945;52.036;8.614;2023-01-25T00:49:42;1.10;99.90
3860;DHT22;1945;52.036;8.614;2023-01-25T00:52:09;1.60;99.90
3860;DHT22;1945;52.036;8.614;2023-01-25T00:54:36;1.50;99.90
3860;DHT22;1945;52.036;8.614;2023-01-25T00:57:03;1.50;99.90
3860;DHT22;1945;52.036;8.614;2023-01-25T00:59:29;1.10;99.90
3860;DHT22;1945;52.036;8.614;2023-01-25T01:01:57;1.50;99.90
3860;DHT22;1945;52.036;8.614;2023-01-25T01:04:24;1.60;99.90
3860;DHT22;1945;52.036;8.614;2023-01-25T01:06:52;1.50;1.00
3860;DHT22;1945;52.036;8.614;2023-01-25T01:09:21;1.00;1.00
3860;DHT22;1945;52.036;8.614;2023-01-25T01:11:47;1.50;1.00
3860;DHT22;1945;52.036;8.614;2023-01-25T01:14:14;1.70;1.00
3860;DHT22;1945;52.036;8.614;2023-01-25T01:16:41;1.50;1.00
3860;DHT22;1945;52.036;8.614;2023-01-25T01:19:09;1.00;1.00
3860;DHT22;1945;52.036;8.614;2023-01-25T01:21:36;1.00;1.00
3860;DHT22;1945;52.036;8.614;2023-01-25T01:24:03;1.50;1.00
3860;DHT22;1945;52.036;8.614;2023-01-25T01:26:29;1.50;1.00
3860;DHT22;1945;52.036;8.614;2023-01-25T01:28:57;1.50;1.00
3860;DHT22;1945;52.036;8.614;2023-01-25T01:31:24;1.40;1.00
3860;DHT22;1945;52.036;8.614;2023-01-25T01:33:52;1.60;1.00
3860;DHT22;1945;52.036;8.614;2023-01-25T01:36:22;1.40;1.00
3860;DHT22;1945;52.036;8.614;2023-01-25T01:38:49;1.10;1.00
3860;DHT22;1945;52.036;8.614;2023-01-25T01:41:16;1.40;1.00
3860;DHT22;1945;52.036;8.614;2023-01-25T01:43:43;1.60;1.00
3860;DHT22;1945;52.036;8.614;2023-01-25T01:46:13;1.60;1.00
3860;DHT22;1945;52.036;8.614;2023-01-25T01:48:44;1.50;1.00
3860;DHT22;1945;52.036;8.614;2023-01-25T01:51:18;1.00;1.00
3860;DHT22;1945;52.036;8.614;2023-01-25T01:53:49;1.50;1.00
3860;DHT22;1945;52.036;8.614;2023-01-25T01:56:21;1.00;1.00
3860;DHT22;1945;52.036;8.614;2023-01-25T01:58:53;1.40;1.00
3860;DHT22;1945;52.036;8.614;2023-01-25T02:01:21;1.40;1.00
3860;DHT22;1945;52.036;8.614;2023-01-25T02:03:48;1.50;1.00
3860;DHT22;1945;52.036;8.614;2023-01-25T02:06:22;1.50;1.00
3860;DHT22;1945;52.036;8.614;2023-01-25T02:08:52;1.40;1.00
3860;DHT22;1945;52.036;8.614;2023-01-25T02:11:20;0.90;1.00
3860;DHT22;1945;52.036;8.614;2023-01-25T02:13:47;1.40;1.00
3860;DHT22;1945;52.036;8.614;2023-01-25T02:16:24;1.40;1.00
3860;DHT22;1945;52.036;8.614;2023-01-25T02:18:52;1.40;1.00
3860;DHT22;1945;52.036;8.614;2023-01-25T02:21:20;1.50;1.00
3860;DHT22;1945;52.036;8.614;2023-01-25T02:23:54;1.50;1.00
3860;DHT22;1945;52.036;8.614;2023-01-25T02:26:23;1.40;1.00
3860;DHT22;1945;52.036;8.614;2023-01-25T02:28:54;1.40;1.00
3860;DHT22;1945;52.036;8.614;2023-01-25T02:31:21;1.50;1.00
3860;DHT22;1945;52.036;8.614;2023-01-25T02:33:48;1.40;1.00
3860;DHT22;1945;52.036;8.614;2023-01-25T02:36:19;1.40;1.00
3860;DHT22;1945;52.036;8.614;2023-01-25T02:38:50;1.50;1.00
3860;DHT22;1945;52.036;8.614;2023-01-25T02:41:23;1.50;1.00
3860;DHT22;1945;52.036;8.614;2023-01-25T02:43:50;1.40;1.00
3860;DHT22;1945;52.036;8.614;2023-01-25T02:46:21;1.40;1.00
3860;DHT22;1945;52.036;8.614;2023-01-25T02:48:50;1.40;1.00
3860;DHT22;1945;52.036;8.614;2023-01-25T02:51:17;0.50;1.00
3860;DHT22;1945;52.036;8.614;2023-01-25T02:53:44;1.50;1.00
3860;DHT22;1945;52.036;8.614;2023-01-25T02:56:10;1.50;1.00
3860;DHT22;1945;52.036;8.614;2023-01-25T02:58:38;1.10;1.00
3860;DHT22;1945;52.036;8.614;2023-01-25T03:01:05;1.40;1.00
3860;DHT22;1945;52.036;8.614;2023-01-25T03:03:32;1.40;1.00
3860;DHT22;1945;52.036;8.614;2023-01-25T03:05:58;1.30;1.00
3860;DHT22;1945;52.036;8.614;2023-01-25T03:08:25;1.40;1.00
3860;DHT22;1945;52.036;8.614;2023-01-25T03:10:55;1.30;1.00
3860;DHT22;1945;52.036;8.614;2023-01-25T03:13:22;1.40;1.00
3860;DHT22;1945;52.036;8.614;2023-01-25T03:15:50;1.40;1.00
3860;DHT22;1945;52.036;8.614;2023-01-25T03:18:17;1.40;1.00
3860;DHT22;1945;52.036;8.614;2023-01-25T03:20:43;1.30;1.00
3860;DHT22;1945;52.036;8.614;2023-01-25T03:23:10;1.40;1.00
3860;DHT22;1945;52.036;8.614;2023-01-25T03:25:36;1.30;1.00
3860;DHT22;1945;52.036;8.614;2023-01-25T03:28:03;1.40;1.00
3860;DHT22;1945;52.036;8.614;2023-01-25T03:30:30;1.30;1.00
3860;DHT22;1945;52.036;8.614;2023-01-25T03:32:58;1.10;1.00
3860;DHT22;1945;52.036;8.614;2023-01-25T03:35:24;0.90;1.00
3860;DHT22;1945;52.036;8.614;2023-01-25T03:37:51;1.30;1.00
3860;DHT22;1945;52.036;8.614;2023-01-25T03:40:18;1.00;1.00
3860;DHT22;1945;52.036;8.614;2023-01-25T03:42:44;1.30;1.00
3860;DHT22;1945;52.036;8.614;2023-01-25T03:45:11;1.40;13.80
3860;DHT22;1945;52.036;8.614;2023-01-25T03:47:38;1.60;12.50
3860;DHT22;1945;52.036;8.614;2023-01-25T03:50:08;1.00;1.00
3860;DHT22;1945;52.036;8.614;2023-01-25T03:52:35;0.80;16.90
3860;DHT22;1945;52.036;8.614;2023-01-25T03:55:06;1.30;44.40
3860;DHT22;1945;52.036;8.614;2023-01-25T03:57:32;0.90;33.60
3860;DHT22;1945;52.036;8.614;2023-01-25T03:59:59;1.40;94.40
3860;DHT22;1945;52.036;8.614;2023-01-25T04:02:26;1.00;90.10
3860;DHT22;1945;52.036;8.614;2023-01-25T04:04:52;0.90;86.70
3860;DHT22;1945;52.036;8.614;2023-01-25T04:07:20;1.40;93.20
3860;DHT22;1945;52.036;8.614;2023-01-25T04:09:47;0.90;52.50
3860;DHT22;1945;52.036;8.614;2023-01-25T04:12:15;1.40;78.40
3860;DHT22;1945;52.036;8.614;2023-01-25T04:14:42;1.10;64.10
3860;DHT22;1945;52.036;8.614;2023-01-25T04:17:09;1.40;90.60
3860;DHT22;1945;52.036;8.614;2023-01-25T04:19:35;1.30;99.90
3860;DHT22;1945;52.036;8.614;2023-01-25T04:22:02;1.30;99.90
3860;DHT22;1945;52.036;8.614;2023-01-25T04:24:30;1.30;99.90
3860;DHT22;1945;52.036;8.614;2023-01-25T04:26:57;1.20;99.90
3860;DHT22;1945;52.036;8.614;2023-01-25T04:29:24;1.40;99.90
3860;DHT22;1945;52.036;8.614;2023-01-25T04:31:50;1.30;99.90
3860;DHT22;1945;52.036;8.614;2023-01-25T04:34:17;1.40;99.90
3860;DHT22;1945;52.036;8.614;2023-01-25T04:36:44;1.30;99.90
3860;DHT22;1945;52.036;8.614;2023-01-25T04:39:11;0.90;99.90
3860;DHT22;1945;52.036;8.614;2023-01-25T04:41:39;0.90;99.90
3860;DHT22;1945;52.036;8.614;2023-01-25T04:44:05;1.40;99.90
3860;DHT22;1945;52.036;8.614;2023-01-25T04:46:32;1.30;99.90
3860;DHT22;1945;52.036;8.614;2023-01-25T04:48:59;1.40;99.90
3860;DHT22;1945;52.036;8.614;2023-01-25T04:51:25;1.40;99.90
3860;DHT22;1945;52.036;8.614;2023-01-25T04:53:52;1.20;99.90
3860;DHT22;1945;52.036;8.614;2023-01-25T04:56:19;0.80;99.90
3860;DHT22;1945;52.036;8.614;2023-01-25T04:58:47;1.40;99.90
3860;DHT22;1945;52.036;8.614;2023-01-25T05:01:13;1.20;99.90
3860;DHT22;1945;52.036;8.614;2023-01-25T05:03:40;1.40;99.90
3860;DHT22;1945;52.036;8.614;2023-01-25T05:06:07;0.80;99.90
3860;DHT22;1945;52.036;8.614;2023-01-25T05:08:33;0.90;99.90
3860;DHT22;1945;52.036;8.614;2023-01-25T05:11:00;1.40;99.90
3860;DHT22;1945;52.036;8.614;2023-01-25T05:13:27;1.40;99.90
3860;DHT22;1945;52.036;8.614;2023-01-25T05:15:56;1.50;99.90
3860;DHT22;1945;52.036;8.614;2023-01-25T05:18:22;0.90;99.90
3860;DHT22;1945;52.036;8.614;2023-01-25T05:20:53;1.30;99.90
3860;DHT22;1945;52.036;8.614;2023-01-25T05:23:19;1.30;99.90
3860;DHT22;1945;52.036;8.614;2023-01-25T05:25:46;1.10;99.90
3860;DHT22;1945;52.036;8.614;2023-01-25T05:28:27;1.50;99.90
3860;DHT22;1945;52.036;8.614;2023-01-25T05:30:53;1.40;99.90
3860;DHT22;1945;52.036;8.614;2023-01-25T05:33:21;1.40;99.90
3860;DHT22;1945;52.036;8.614;2023-01-25T05:35:48;1.60;99.90
3860;DHT22;1945;52.036;8.614;2023-01-25T05:38:14;1.40;99.90
3860;DHT22;1945;52.036;8.614;2023-01-25T05:40:41;1.40;99.90
3860;DHT22;1945;52.036;8.614;2023-01-25T05:43:08;1.30;99.90
3860;DHT22;1945;52.036;8.614;2023-01-25T05:45:35;0.80;99.90
3860;DHT22;1945;52.036;8.614;2023-01-25T05:48:02;1.30;99.90
3860;DHT22;1945;52.036;8.614;2023-01-25T05:50:30;1.40;99.90
3860;DHT22;1945;52.036;8.614;2023-01-25T05:52:57;1.30;99.90
3860;DHT22;1945;52.036;8.614;2023-01-25T05:55:23;1.30;99.90
3860;DHT22;1945;52.036;8.614;2023-01-25T05:57:50;1.30;99.90
3860;DHT22;1945;52.036;8.614;2023-01-25T06:00:17;1.30;99.90
3860;DHT22;1945;52.036;8.614;2023-01-25T06:02:44;1.00;99.90
3860;DHT22;1945;52.036;8.614;2023-01-25T06:05:12;1.30;99.90
3860;DHT22;1945;52.036;8.614;2023-01-25T06:07:40;1.40;99.90
3860;DHT22;1945;52.036;8.614;2023-01-25T06:10:07;1.20;99.90
3860;DHT22;1945;52.036;8.614;2023-01-25T06:12:34;0.80;99.90
3860;DHT22;1945;52.036;8.614;2023-01-25T06:15:01;0.80;99.90
3860;DHT22;1945;52.036;8.614;2023-01-25T06:17:28;1.20;99.90
3860;DHT22;1945;52.036;8.614;2023-01-25T06:19:54;1.40;99.90
3860;DHT22;1945;52.036;8.614;2023-01-25T06:22:21;1.50;99.90
3860;DHT22;1945;52.036;8.614;2023-01-25T06:24:49;1.40;99.90
3860;DHT22;1945;52.036;8.614;2023-01-25T06:27:15;1.20;99.90
3860;DHT22;1945;52.036;8.614;2023-01-25T06:29:42;1.40;99.90
3860;DHT22;1945;52.036;8.614;2023-01-25T06:32:09;1.40;99.90
3860;DHT22;1945;52.036;8.614;2023-01-25T06:34:35;0.90;99.90
3860;DHT22;1945;52.036;8.614;2023-01-25T06:37:02;1.40;99.90
3860;DHT22;1945;52.036;8.614;2023-01-25T06:39:29;1.30;99.90
3860;DHT22;1945;52.036;8.614;2023-01-25T06:41:57;1.40;99.90
3860;DHT22;1945;52.036;8.614;2023-01-25T06:44:23;1.40;99.90
3860;DHT22;1945;52.036;8.614;2023-01-25T06:46:50;1.60;99.90
3860;DHT22;1945;52.036;8.614;2023-01-25T06:49:17;1.30;99.90
3860;DHT22;1945;52.036;8.614;2023-01-25T06:51:43;1.20;99.90
3860;DHT22;1945;52.036;8.614;2023-01-25T06:54:10;1.30;99.90
3860;DHT22;1945;52.036;8.614;2023-01-25T06:56:36;1.40;99.90
3860;DHT22;1945;52.036;8.614;2023-01-25T06:59:04;1.20;99.90
3860;DHT22;1945;52.036;8.614;2023-01-25T07:01:31;1.20;99.90
3860;DHT22;1945;52.036;8.614;2023-01-25T07:03:58;1.30;99.90
3860;DHT22;1945;52.036;8.614;2023-01-25T07:06:29;0.70;99.90
3860;DHT22;1945;52.036;8.614;2023-01-25T07:09:01;1.30;99.90
3860;DHT22;1945;52.036;8.614;2023-01-25T07:11:28;1.30;99.90
3860;DHT22;1945;52.036;8.614;2023-01-25T07:13:54;1.10;99.90
3860;DHT22;1945;52.036;8.614;2023-01-25T07:16:22;1.20;99.90
3860;DHT22;1945;52.036;8.614;2023-01-25T07:18:49;1.20;99.90
3860;DHT22;1945;52.036;8.614;2023-01-25T07:21:17;1.10;99.90
3860;DHT22;1945;52.036;8.614;2023-01-25T07:23:45;1.30;99.90
3860;DHT22;1945;52.036;8.614;2023-01-25T07:26:14;1.40;99.90
3860;DHT22;1945;52.036;8.614;2023-01-25T07:28:42;1.40;99.90
3860;DHT22;1945;52.036;8.614;2023-01-25T07:31:09;1.30;99.90
3860;DHT22;1945;52.036;8.614;2023-01-25T07:33:37;1.40;99.90
3860;DHT22;1945;52.036;8.614;2023-01-25T07:36:06;1.40;99.90
3860;DHT22;1945;52.036;8.614;2023-01-25T07:38:33;0.70;99.90
3860;DHT22;1945;52.036;8.614;2023-01-25T07:41:01;1.30;99.90
3860;DHT22;1945;52.036;8.614;2023-01-25T07:43:28;1.10;99.90
3860;DHT22;1945;52.036;8.614;2023-01-25T07:45:59;0.90;99.90
3860;DHT22;1945;52.036;8.614;2023-01-25T07:48:26;1.20;99.90
3860;DHT22;1945;52.036;8.614;2023-01-25T07:50:57;1.20;99.90
3860;DHT22;1945;52.036;8.614;2023-01-25T07:53:37;1.30;99.90
3860;DHT22;1945;52.036;8.614;2023-01-25T07:56:04;1.10;99.90
3860;DHT22;1945;52.036;8.614;2023-01-25T07:58:31;0.70;99.90
3860;DHT22;1945;52.036;8.614;2023-01-25T08:01:04;0.70;99.90
3860;DHT22;1945;52.036;8.614;2023-01-25T08:03:30;1.10;99.90
3860;DHT22;1945;52.036;8.614;2023-01-25T08:05:58;0.70;99.90
3860;DHT22;1945;52.036;8.614;2023-01-25T08:08:25;1.20;99.90
3860;DHT22;1945;52.036;8.614;2023-01-25T08:10:52;1.10;99.90
3860;DHT22;1945;52.036;8.614;2023-01-25T08:13:19;0.80;99.90
3860;DHT22;1945;52.036;8.614;2023-01-25T08:15:52;1.30;99.90
3860;DHT22;1945;52.036;8.614;2023-01-25T08:18:19;1.20;99.90
3860;DHT22;1945;52.036;8.614;2023-01-25T08:20:46;1.20;99.90
3860;DHT22;1945;52.036;8.614;2023-01-25T08:23:14;1.20;99.90
3860;DHT22;1945;52.036;8.614;2023-01-25T08:25:40;1.30;99.90
3860;DHT22;1945;52.036;8.614;2023-01-25T08:28:07;1.50;99.90
3860;DHT22;1945;52.036;8.614;2023-01-25T08:30:34;1.10;99.90
3860;DHT22;1945;52.036;8.614;2023-01-25T08:33:01;1.10;99.90
3860;DHT22;1945;52.036;8.614;2023-01-25T08:35:27;1.20;99.90
3860;DHT22;1945;52.036;8.614;2023-01-25T08:37:54;0.90;99.90
3860;DHT22;1945;52.036;8.614;2023-01-25T08:40:22;1.20;99.90
3860;DHT22;1945;52.036;8.614;2023-01-25T08:42:49;1.30;99.90
3860;DHT22;1945;52.036;8.614;2023-01-25T08:45:15;1.20;99.90
3860;DHT22;1945;52.036;8.614;2023-01-25T08:47:42;0.80;99.90
3860;DHT22;1945;52.036;8.614;2023-01-25T08:50:10;1.40;99.90
3860;DHT22;1945;52.036;8.614;2023-01-25T08:52:36;0.80;99.90
3860;DHT22;1945;52.036;8.614;2023-01-25T08:55:04;1.30;99.90
3860;DHT22;1945;52.036;8.614;2023-01-25T08:57:32;0.80;99.90
3860;DHT22;1945;52.036;8.614;2023-01-25T08:59:58;1.30;99.90
3860;DHT22;1945;52.036;8.614;2023-01-25T09:02:25;1.20;99.90
3860;DHT22;1945;52.036;8.614;2023-01-25T09:04:52;1.30;99.90
3860;DHT22;1945;52.036;8.614;2023-01-25T09:07:18;1.40;99.90
3860;DHT22;1945;52.036;8.614;2023-01-25T09:09:45;1.10;99.90
3860;DHT22;1945;52.036;8.614;2023-01-25T09:12:12;1.10;99.90
3860;DHT22;1945;52.036;8.614;2023-01-25T09:14:40;1.20;99.90
3860;DHT22;1945;52.036;8.614;2023-01-25T09:17:08;1.40;99.90
3860;DHT22;1945;52.036;8.614;2023-01-25T09:19:34;1.40;99.90
3860;DHT22;1945;52.036;8.614;2023-01-25T09:22:01;0.60;99.90
3860;DHT22;1945;52.036;8.614;2023-01-25T09:24:28;1.20;99.90
3860;DHT22;1945;52.036;8.614;2023-01-25T09:26:54;0.70;99.90
3860;DHT22;1945;52.036;8.614;2023-01-25T09:29:21;0.90;99.90
3860;DHT22;1945;52.036;8.614;2023-01-25T09:31:49;1.30;99.90
3860;DHT22;1945;52.036;8.614;2023-01-25T09:34:17;0.70;99.90
3860;DHT22;1945;52.036;8.614;2023-01-25T09:36:44;1.10;99.90
3860;DHT22;1945;52.036;8.614;2023-01-25T09:39:11;1.40;99.90
3860;DHT22;1945;52.036;8.614;2023-01-25T09:42:03;1.30;99.90
3860;DHT22;1945;52.036;8.614;2023-01-25T09:44:41;1.20;99.90
3860;DHT22;1945;52.036;8.614;2023-01-25T09:47:18;0.70;99.90
3860;DHT22;1945;52.036;8.614;2023-01-25T09:50:00;1.20;99.90
3860;DHT22;1945;52.036;8.614;2023-01-25T09:52:48;0.80;99.90
3860;DHT22;1945;52.036;8.614;2023-01-25T09:55:21;1.30;99.90
3860;DHT22;1945;52.036;8.614;2023-01-25T09:57:50;0.80;99.90
3860;DHT22;1945;52.036;8.614;2023-01-25T10:00:23;1.40;99.90
3860;DHT22;1945;52.036;8.614;2023-01-25T10:02:59;1.10;99.90
3860;DHT22;1945;52.036;8.614;2023-01-25T10:05:31;1.40;99.90
3860;DHT22;1945;52.036;8.614;2023-01-25T10:08:04;1.50;99.90
3860;DHT22;1945;52.036;8.614;2023-01-25T10:10:35;1.30;99.90
3860;DHT22;1945;52.036;8.614;2023-01-25T10:13:03;1.60;99.90
3860;DHT22;1945;52.036;8.614;2023-01-25T10:15:32;1.40;99.90
3860;DHT22;1945;52.036;8.614;2023-01-25T10:18:08;1.40;99.90
3860;DHT22;1945;52.036;8.614;2023-01-25T10:20:43;1.50;99.90
3860;DHT22;1945;52.036;8.614;2023-01-25T10:23:35;1.30;99.90
3860;DHT22;1945;52.036;8.614;2023-01-25T10:26:11;0.90;99.90
3860;DHT22;1945;52.036;8.614;2023-01-25T10:28:43;1.40;99.90
3860;DHT22;1945;52.036;8.614;2023-01-25T10:31:16;1.40;99.90
3860;DHT22;1945;52.036;8.614;2023-01-25T10:33:47;1.40;99.90
3860;DHT22;1945;52.036;8.614;2023-01-25T10:36:15;1.40;99.90
3860;DHT22;1945;52.036;8.614;2023-01-25T10:38:44;1.50;99.90
3860;DHT22;1945;52.036;8.614;2023-01-25T10:41:15;1.50;99.90
3860;DHT22;1945;52.036;8.614;2023-01-25T10:43:44;1.30;99.90
3860;DHT22;1945;52.036;8.614;2023-01-25T10:46:19;0.90;99.90
3860;DHT22;1945;52.036;8.614;2023-01-25T10:48:48;1.30;99.90
3860;DHT22;1945;52.036;8.614;2023-01-25T10:51:29;1.40;99.90
3860;DHT22;1945;52.036;8.614;2023-01-25T10:54:01;1.50;99.90
3860;DHT22;1945;52.036;8.614;2023-01-25T10:56:29;1.50;99.90
3860;DHT22;1945;52.036;8.614;2023-01-25T10:59:07;1.30;99.90
3860;DHT22;1945;52.036;8.614;2023-01-25T11:01:39;0.90;99.90
3860;DHT22;1945;52.036;8.614;2023-01-25T11:04:28;1.30;99.90
3860;DHT22;1945;52.036;8.614;2023-01-25T11:06:56;0.90;99.90
3860;DHT22;1945;52.036;8.614;2023-01-25T11:09:37;1.40;99.90
3860;DHT22;1945;52.036;8.614;2023-01-25T11:12:14;0.90;99.90
3860;DHT22;1945;52.036;8.614;2023-01-25T11:14:42;1.40;99.90
3860;DHT22;1945;52.036;8.614;2023-01-25T11:17:24;0.90;99.90
3860;DHT22;1945;52.036;8.614;2023-01-25T11:20:09;0.70;99.90
3860;DHT22;1945;52.036;8.614;2023-01-25T11:22:48;1.30;99.90
3860;DHT22;1945;52.036;8.614;2023-01-25T11:25:25;1.10;99.90
3860;DHT22;1945;52.036;8.614;2023-01-25T11:28:09;0.60;99.90
3860;DHT22;1945;52.036;8.614;2023-01-25T11:30:36;1.20;99.90
3860;DHT22;1945;52.036;8.614;2023-01-25T11:33:08;1.20;99.90
3860;DHT22;1945;52.036;8.614;2023-01-25T11:35:43;1.10;99.90
3860;DHT22;1945;52.036;8.614;2023-01-25T11:38:18;0.60;99.90
3860;DHT22;1945;52.036;8.614;2023-01-25T11:40:48;0.80;99.90
3860;DHT22;1945;52.036;8.614;2023-01-25T11:43:27;1.00;99.90
3860;DHT22;1945;52.036;8.614;2023-01-25T11:46:12;1.10;99.90
3860;DHT22;1945;52.036;8.614;2023-01-25T11:49:06;1.20;99.90
3860;DHT22;1945;52.036;8.614;2023-01-25T11:51:42;0.60;99.90
3860;DHT22;1945;52.036;8.614;2023-01-25T11:54:32;1.20;99.90
3860;DHT22;1945;52.036;8.614;2023-01-25T11:57:11;0.70;99.90
3860;DHT22;1945;52.036;8.614;2023-01-25T11:59:54;1.30;99.90
3860;DHT22;1945;52.036;8.614;2023-01-25T12:02:42;0.70;99.90
3860;DHT22;1945;52.036;8.614;2023-01-25T12:05:24;0.60;99.90
3860;DHT22;1945;52.036;8.614;2023-01-25T12:08:02;1.10;99.90
3860;DHT22;1945;52.036;8.614;2023-01-25T12:10:39;1.00;99.90
3860;DHT22;1945;52.036;8.614;2023-01-25T12:13:14;1.10;99.90
3860;DHT22;1945;52.036;8.614;2023-01-25T12:16:10;1.10;99.90
3860;DHT22;1945;52.036;8.614;2023-01-25T12:18:54;1.10;99.90
3860;DHT22;1945;52.036;8.614;2023-01-25T12:21:39;1.10;99.90
3860;DHT22;1945;52.036;8.614;2023-01-25T12:24:25;0.90;99.90
3860;DHT22;1945;52.036;8.614;2023-01-25T12:27:09;1.00;99.90
3860;DHT22;1945;52.036;8.614;2023-01-25T12:29:39;0.90;99.90
3860;DHT22;1945;52.036;8.614;2023-01-25T12:32:11;0.80;99.90
3860;DHT22;1945;52.036;8.614;2023-01-25T12:34:45;0.80;99.90
3860;DHT22;1945;52.036;8.614;2023-01-25T12:37:17;0.80;99.90
3860;DHT22;1945;52.036;8.614;2023-01-25T12:39:51;-0.10;99.90
3860;DHT22;1945;52.036;8.614;2023-01-25T12:42:23;0.80;99.90
3860;DHT22;1945;52.036;8.614;2023-01-25T12:44:55;0.60;99.90
3860;DHT22;1945;52.036;8.614;2023-01-25T12:47:30;0.90;99.90
3860;DHT22;1945;52.036;8.614;2023-01-25T12:50:05;0.80;99.90
3860;DHT22;1945;52.036;8.614;2023-01-25T12:52:41;0.20;99.90
3860;DHT22;1945;52.036;8.614;2023-01-25T12:55:14;0.70;99.90
3860;DHT22;1945;52.036;8.614;2023-01-25T12:57:50;0.20;99.90
3860;DHT22;1945;52.036;8.614;2023-01-25T13:00:22;0.30;99.90
3860;DHT22;1945;52.036;8.614;2023-01-25T13:03:05;0.20;99.90
3860;DHT22;1945;52.036;8.614;2023-01-25T13:05:38;0.90;99.90
3860;DHT22;1945;52.036;8.614;2023-01-25T13:08:16;0.40;99.90
3860;DHT22;1945;52.036;8.614;2023-01-25T13:10:48;0.80;99.90
3860;DHT22;1945;52.036;8.614;2023-01-25T13:13:21;0.90;99.90
3860;DHT22;1945;52.036;8.614;2023-01-25T13:15:48;0.80;99.90
3860;DHT22;1945;52.036;8.614;2023-01-25T13:18:34;0.70;99.90
3860;DHT22;1945;52.036;8.614;2023-01-25T13:21:03;0.60;99.90
3860;DHT22;1945;52.036;8.614;2023-01-25T13:23:32;0.20;99.90
3860;DHT22;1945;52.036;8.614;2023-01-25T13:26:42;0.50;99.90
3860;DHT22;1945;52.036;8.614;2023-01-25T13:29:41;0.20;99.90
3860;DHT22;1945;52.036;8.614;2023-01-25T13:32:12;0.20;99.90
3860;DHT22;1945;52.036;8.614;2023-01-25T13:34:58;0.70;99.90
3860;DHT22;1945;52.036;8.614;2023-01-25T13:37:27;0.10;99.90
3860;DHT22;1945;52.036;8.614;2023-01-25T13:39:55;0.20;99.90
3860;DHT22;1945;52.036;8.614;2023-01-25T13:42:25;0.00;99.90
3860;DHT22;1945;52.036;8.614;2023-01-25T13:44:54;0.00;99.90
3860;DHT22;1945;52.036;8.614;2023-01-25T13:47:23;0.10;99.90
3860;DHT22;1945;52.036;8.614;2023-01-25T13:49:58;0.60;99.90
3860;DHT22;1945;52.036;8.614;2023-01-25T13:52:27;0.50;99.90
3860;DHT22;1945;52.036;8.614;2023-01-25T13:54:56;0.80;99.90
3860;DHT22;1945;52.036;8.614;2023-01-25T13:57:26;0.30;99.90
3860;DHT22;1945;52.036;8.614;2023-01-25T14:00:00;0.70;99.90
3860;DHT22;1945;52.036;8.614;2023-01-25T14:02:27;0.60;99.90
3860;DHT22;1945;52.036;8.614;2023-01-25T14:04:55;0.60;99.90
3860;DHT22;1945;52.036;8.614;2023-01-25T14:07:28;0.50;99.90
3860;DHT22;1945;52.036;8.614;2023-01-25T14:09:57;0.40;99.90
3860;DHT22;1945;52.036;8.614;2023-01-25T14:12:33;0.30;99.90
3860;DHT22;1945;52.036;8.614;2023-01-25T14:15:18;0.40;99.90
3860;DHT22;1945;52.036;8.614;2023-01-25T14:17:45;0.10;99.90
3860;DHT22;1945;52.036;8.614;2023-01-25T14:20:28;0.40;99.90
3860;DHT22;1945;52.036;8.614;2023-01-25T14:22:55;0.10;99.90
3860;DHT22;1945;52.036;8.614;2023-01-25T14:25:22;-0.10;99.90
3860;DHT22;1945;52.036;8.614;2023-01-25T14:27:53;0.30;99.90
3860;DHT22;1945;52.036;8.614;2023-01-25T14:30:22;0.30;99.90
3860;DHT22;1945;52.036;8.614;2023-01-25T14:32:50;0.30;99.90
3860;DHT22;1945;52.036;8.614;2023-01-25T14:35:41;0.20;99.90
3860;DHT22;1945;52.036;8.614;2023-01-25T14:38:28;0.30;99.90
3860;DHT22;1945;52.036;8.614;2023-01-25T14:40:57;0.10;99.90
3860;DHT22;1945;52.036;8.614;2023-01-25T14:43:26;0.30;99.90
3860;DHT22;1945;52.036;8.614;2023-01-25T14:45:53;0.40;99.90
3860;DHT22;1945;52.036;8.614;2023-01-25T14:48:34;0.40;99.90
3860;DHT22;1945;52.036;8.614;2023-01-25T14:51:08;0.40;99.90
3860;DHT22;1945;52.036;8.614;2023-01-25T14:53:37;0.30;99.90
3860;DHT22;1945;52.036;8.614;2023-01-25T14:56:05;0.20;99.90
3860;DHT22;1945;52.036;8.614;2023-01-25T14:58:41;-0.20;99.90
3860;DHT22;1945;52.036;8.614;2023-01-25T15:01:12;0.40;99.90
3860;DHT22;1945;52.036;8.614;2023-01-25T15:03:47;-0.30;99.90
3860;DHT22;1945;52.036;8.614;2023-01-25T15:06:14;0.20;99.90
3860;DHT22;1945;52.036;8.614;2023-01-25T15:08:40;-0.10;99.90
3860;DHT22;1945;52.036;8.614;2023-01-25T15:11:29;-0.10;99.90
3860;DHT22;1945;52.036;8.614;2023-01-25T15:14:16;-0.40;99.90
3860;DHT22;1945;52.036;8.614;2023-01-25T15:16:43;-0.30;99.90
3860;DHT22;1945;52.036;8.614;2023-01-25T15:19:25;0.20;99.90
3860;DHT22;1945;52.036;8.614;2023-01-25T15:21:53;0.20;99.90
3860;DHT22;1945;52.036;8.614;2023-01-25T15:24:21;0.20;99.90
3860;DHT22;1945;52.036;8.614;2023-01-25T15:26:49;0.30;99.90
3860;DHT22;1945;52.036;8.614;2023-01-25T15:29:19;0.10;99.90
3860;DHT22;1945;52.036;8.614;2023-01-25T15:31:47;0.10;99.90
3860;DHT22;1945;52.036;8.614;2023-01-25T15:34:16;-0.30;99.90
3860;DHT22;1945;52.036;8.614;2023-01-25T15:36:43;0.10;99.90
3860;DHT22;1945;52.036;8.614;2023-01-25T15:39:11;0.10;99.90
3860;DHT22;1945;52.036;8.614;2023-01-25T15:41:39;0.00;99.90
3860;DHT22;1945;52.036;8.614;2023-01-25T15:44:06;0.10;99.90
3860;DHT22;1945;52.036;8.614;2023-01-25T15:46:35;0.20;99.90
3860;DHT22;1945;52.036;8.614;2023-01-25T15:49:04;-0.30;99.90
3860;DHT22;1945;52.036;8.614;2023-01-25T15:51:31;0.20;99.90
3860;DHT22;1945;52.036;8.614;2023-01-25T15:53:58;0.20;99.90
3860;DHT22;1945;52.036;8.614;2023-01-25T15:56:28;0.10;99.90
3860;DHT22;1945;52.036;8.614;2023-01-25T15:58:58;-0.30;99.90
3860;DHT22;1945;52.036;8.614;2023-01-25T16:01:27;0.20;99.90
3860;DHT22;1945;52.036;8.614;2023-01-25T16:03:57;0.20;99.90
3860;DHT22;1945;52.036;8.614;2023-01-25T16:06:32;-0.20;99.90
3860;DHT22;1945;52.036;8.614;2023-01-25T16:09:02;0.10;99.90
3860;DHT22;1945;52.036;8.614;2023-01-25T16:11:32;0.20;99.90
3860;DHT22;1945;52.036;8.614;2023-01-25T16:13:59;0.10;99.90
3860;DHT22;1945;52.036;8.614;2023-01-25T16:16:25;0.30;99.90
3860;DHT22;1945;52.036;8.614;2023-01-25T16:18:52;0.20;99.90
3860;DHT22;1945;52.036;8.614;2023-01-25T16:21:20;-0.50;99.90
3860;DHT22;1945;52.036;8.614;2023-01-25T16:23:47;0.20;99.90
3860;DHT22;1945;52.036;8.614;2023-01-25T16:26:16;-0.30;99.90
3860;DHT22;1945;52.036;8.614;2023-01-25T16:28:44;0.10;99.90
3860;DHT22;1945;52.036;8.614;2023-01-25T16:31:12;-0.20;99.90
3860;DHT22;1945;52.036;8.614;2023-01-25T16:33:39;0.20;99.90
3860;DHT22;1945;52.036;8.614;2023-01-25T16:36:14;0.20;99.90
3860;DHT22;1945;52.036;8.614;2023-01-25T16:38:42;0.00;99.90
3860;DHT22;1945;52.036;8.614;2023-01-25T16:41:09;0.00;99.90